< < Back
Terminal Aerodrome Forecast


Current Version              Previous Versions:   1  2  3  4  5  6  7  8  9  

Terminal Aerodrome Forecast

139
FTUS42 KTAE 051926 AAA
TAFTLH
TAF AMD
KTLH 051926Z 0519/0618 22005KT 3SM RA BR BKN015
     FM052100 20003KT P6SM -RA BKN120
     FM060200 27003KT P6SM SCT120=



Latest METAR

475
SAUS80 KWBC 070000 CCA
MTRTLH
METAR KTLH 062353Z 28004KT 10SM FEW050 FEW150 SCT250 30/23 A3010 RMK AO2
SLP192 60006 T03000228 10322 20272 55008


USA.gov is the U.S. government's official web portal to all federal, state and local government web resources and services.